Mega Smeralda — ICIU — position and weather

sailwx.info

Track history (hours):
 
Tides and Currents Weather Stations Pressure Air Temp Water Temp Dewpoint Dewpoint Depression Visibility Wind Speed Wind Dir Waves Ship Positions

Mega Smeralda

Last reported at 2015-Aug-02 07:19 UTC. Time now 2015-Aug-02 08:17 UTC.
Position N 42°53' E 006°38'.

Length 171 m; draft 6.4 m.

Type: Passenger vessel. MMSI: 247228600.

Date/timePositionNaut miles runAvg speedWind from/ knotsBaromVisibWave heightAir tempDewpointWater temp
2015-Aug-02 07:19N 42°53' E 006°38'3117.3
2015-Aug-02 05:33N 43°04' E 005°59'4 3.6
2015-Aug-02 04:31N 43°07' E 005°56'1 1.5
2015-Aug-02 03:33N 43°06' E 005°55'1915.5
2015-Aug-02 02:21N 42°56' E 006°17'1519.5
2015-Aug-02 01:33N 42°57' E 006°38'1919.4
2015-Aug-02 00:33N 42°58' E 007°05'6019.5
2015-Aug-01 21:27N 43°01' E 008°27'3719.2
2015-Aug-01 19:32N 43°03' E 009°17'1716.0
2015-Aug-01 18:27N 42°50' E 009°32'9 9.7
2015-Aug-01 17:34N 42°42' E 009°27'0 0.0
2015-Aug-01 16:34N 42°42' E 009°27'1010.3
2015-Aug-01 15:33N 42°48' E 009°39'1817.6
2015-Aug-01 14:32N 42°60' E 009°57'1818.3
2015-Aug-01 13:33N 43°17' E 010°05'1716.9
2015-Aug-01 12:34N 43°32' E 010°15'2 2.4
2015-Aug-01 11:33N 43°33' E 010°18'2 1.8
2015-Aug-01 10:33N 43°32' E 010°16'1817.7
2015-Aug-01 09:34N 43°19' E 009°59'2119.3
2015-Aug-01 08:29N 43°04' E 009°41'1819.7
2015-Aug-01 07:34N 42°47' E 009°32'6 5.7
2015-Aug-01 06:34N 42°42' E 009°27'2 2.0
2015-Aug-01 05:33N 42°43' E 009°30'1817.9
2015-Aug-01 04:33N 43°01' E 009°30'1919.1
2015-Aug-01 03:33N 43°03' E 009°04'4120.0
2015-Aug-01 01:32N 43°00' E 008°09'1919.8
2015-Aug-01 00:33N 42°59' E 007°42'7518.7
2015-Jul-31 20:32N 43°02' E 005°60'5 5.5
2015-Jul-31 19:33N 43°07' E 005°56'1 0.6
2015-Jul-31 18:33N 43°07' E 005°55'1716.7
2015-Jul-31 17:32N 42°55' E 006°12'2020.2
2015-Jul-31 16:33N 42°53' E 006°39'1919.2
2015-Jul-31 15:33N 42°50' E 007°05'2120.5
2015-Jul-31 14:33N 42°48' E 007°33'2020.3
2015-Jul-31 13:33N 42°45' E 008°01'2020.1
2015-Jul-31 12:33N 42°43' E 008°28'2120.1
2015-Jul-31 11:32N 42°41' E 008°56'2 2.0
2015-Jul-31 10:26N 42°38' E 008°56'4916.6
2015-Jul-31 07:30N 43°11' E 008°06'2120.3
2015-Jul-31 06:28N 43°24' E 007°44'1819.4
2015-Jul-31 05:33N 43°35' E 007°25'9 7.9
2015-Jul-31 04:28N 43°42' E 007°17'0 0.3
2015-Jul-31 03:33N 43°41' E 007°17'1413.0
2015-Jul-31 02:30N 43°29' E 007°26'1414.4
2015-Jul-31 01:33N 43°17' E 007°33'1515.1
2015-Jul-31 00:33N 43°03' E 007°42'1514.9
2015-Jul-30 23:34N 42°50' E 007°51'1515.1
2015-Jul-30 22:33N 42°36' E 008°00'39 1.7
2015-Jul-29 23:33N 42°28' E 007°08'3915.8
2015-Jul-29 21:07N 42°49' E 006°24'2314.8
2015-Jul-29 19:32N 43°03' E 005°59'4 4.3
2015-Jul-29 18:33N 43°07' E 005°56'0 0.0
2015-Jul-29 17:33N 43°07' E 005°56'0 0.0
2015-Jul-29 16:33N 43°07' E 005°56'0 0.0
2015-Jul-29 15:33N 43°07' E 005°56'1 0.6
2015-Jul-29 14:33N 43°07' E 005°55'1515.4
2015-Jul-29 13:33N 42°55' E 006°10'1919.2
2015-Jul-29 12:33N 42°45' E 006°32'1919.1
2015-Jul-29 11:33N 42°35' E 006°54'1919.1
2015-Jul-29 10:33N 42°25' E 007°16'4 0.4
2015-Jul-29 00:08N 42°22' E 007°21'1016.8
2015-Jul-28 23:33N 42°28' E 007°09'1716.9
2015-Jul-28 22:32N 42°37' E 006°50'4016.6
2015-Jul-28 20:08N 42°57' E 006°03'915.6
2015-Jul-28 19:33N 43°05' E 005°57'2 2.0
2015-Jul-28 18:31N 43°07' E 005°56'0 0.2
2015-Jul-28 17:33N 43°07' E 005°56'1414.2
2015-Jul-28 16:33N 42°56' E 006°08'1918.9
2015-Jul-28 15:33N 42°46' E 006°30'1818.4
2015-Jul-28 14:33N 42°36' E 006°51'1818.2
2015-Jul-28 13:33N 42°26' E 007°12'6118.5
2015-Jul-28 10:14N 41°54' E 008°22'58 5.7
2015-Jul-28 00:11N 42°24' E 007°17'1016.4
2015-Jul-27 23:33N 42°30' E 007°05'5316.5
2015-Jul-27 20:20N 42°56' E 006°02'1114.2
2015-Jul-27 19:34N 43°06' E 005°55'1 1.1
2015-Jul-27 18:31N 43°07' E 005°56'0 0.0
2015-Jul-27 17:34N 43°07' E 005°56'1313.4
2015-Jul-27 16:33N 42°57' E 006°08'1918.6
2015-Jul-27 15:34N 42°47' E 006°29'1918.8
2015-Jul-27 14:33N 42°37' E 006°51'1918.7
2015-Jul-27 13:33N 42°27' E 007°12'1918.7
2015-Jul-27 12:34N 42°17' E 007°33'0 0.0
2015-Jul-27 03:30N 42°17' E 007°33'1819.4
2015-Jul-27 02:33N 42°27' E 007°12'1919.3
2015-Jul-27 01:33N 42°37' E 006°50'1919.2
2015-Jul-27 00:33N 42°47' E 006°28'1918.9
2015-Jul-26 23:33N 42°57' E 006°06'1212.2
2015-Jul-26 22:32N 43°07' E 005°56'0 0.0
2015-Jul-26 21:34N 43°07' E 005°56'1312.8
2015-Jul-26 20:33N 42°57' E 006°07'1919.6
2015-Jul-26 19:34N 42°53' E 006°33'1919.1
2015-Jul-26 18:34N 42°51' E 006°59'4 0.4
2015-Jul-26 08:13N 42°51' E 007°04'5018.7
2015-Jul-26 05:33N 43°04' E 005°59'4 3.7
2015-Jul-26 04:31N 43°07' E 005°56'2311.5
2015-Jul-26 02:33N 42°56' E 006°23'1919.5
2015-Jul-26 01:34N 42°57' E 006°49'1919.0
2015-Jul-26 00:34N 42°58' E 007°15'56 2.5
2015-Jul-25 02:08N 43°01' E 008°31'3220.3
2015-Jul-25 00:33N 42°60' E 007°48'2020.2
2015-Jul-24 23:33N 42°58' E 007°20'2020.2
2015-Jul-24 22:34N 42°57' E 006°53'2019.8
2015-Jul-24 21:33N 42°56' E 006°26'1918.2
2015-Jul-24 20:32N 43°01' E 006°01'7 6.9
2015-Jul-24 19:31N 43°07' E 005°56'0 0.0
2015-Jul-24 18:31N 43°07' E 005°56'1110.8
2015-Jul-24 17:33N 42°58' E 006°04'2020.2
2015-Jul-24 16:33N 42°54' E 006°31'2120.6
2015-Jul-24 15:34N 42°51' E 006°58'52 6.3
2015-Jul-24 07:16N 43°13' E 008°03'1420.1
2015-Jul-24 06:33N 43°22' E 007°48'2019.9
2015-Jul-24 05:33N 43°34' E 007°27'10 8.9
2015-Jul-24 04:27N 43°42' E 007°17'2 2.4
2015-Jul-24 03:32N 43°39' E 007°18'1313.0
2015-Jul-24 02:32N 43°28' E 007°26'1313.2
2015-Jul-24 01:33N 43°16' E 007°33'1413.6
2015-Jul-24 00:33N 43°04' E 007°42'1414.1
2015-Jul-23 23:33N 42°52' E 007°50'  
Track history (hours):
 
Tides and Currents Weather Stations Pressure Air Temp Water Temp Dewpoint Dewpoint Depression Visibility Wind Speed Wind Dir Waves Ship Positions

Mega Smeralda

Last reported at 2015-Aug-02 07:19 UTC. Time now 2015-Aug-02 08:17 UTC.
Position N 42°53' E 006°38'.

Length 171 m; draft 6.4 m.

Type: Passenger vessel. MMSI: 247228600.

Date/timePositionNaut miles runAvg speedWind from/ knotsBaromVisibWave heightAir tempDewpointWater temp
2015-Aug-02 07:19N 42°53' E 006°38'3117.3
2015-Aug-02 05:33N 43°04' E 005°59'4 3.6
2015-Aug-02 04:31N 43°07' E 005°56'1 1.5
2015-Aug-02 03:33N 43°06' E 005°55'1915.5
2015-Aug-02 02:21N 42°56' E 006°17'1519.5
2015-Aug-02 01:33N 42°57' E 006°38'1919.4
2015-Aug-02 00:33N 42°58' E 007°05'6019.5
2015-Aug-01 21:27N 43°01' E 008°27'3719.2
2015-Aug-01 19:32N 43°03' E 009°17'1716.0
2015-Aug-01 18:27N 42°50' E 009°32'9 9.7
2015-Aug-01 17:34N 42°42' E 009°27'0 0.0
2015-Aug-01 16:34N 42°42' E 009°27'1010.3
2015-Aug-01 15:33N 42°48' E 009°39'1817.6
2015-Aug-01 14:32N 42°60' E 009°57'1818.3
2015-Aug-01 13:33N 43°17' E 010°05'1716.9
2015-Aug-01 12:34N 43°32' E 010°15'2 2.4
2015-Aug-01 11:33N 43°33' E 010°18'2 1.8
2015-Aug-01 10:33N 43°32' E 010°16'1817.7
2015-Aug-01 09:34N 43°19' E 009°59'2119.3
2015-Aug-01 08:29N 43°04' E 009°41'1819.7
2015-Aug-01 07:34N 42°47' E 009°32'6 5.7
2015-Aug-01 06:34N 42°42' E 009°27'2 2.0
2015-Aug-01 05:33N 42°43' E 009°30'1817.9
2015-Aug-01 04:33N 43°01' E 009°30'1919.1
2015-Aug-01 03:33N 43°03' E 009°04'4120.0
2015-Aug-01 01:32N 43°00' E 008°09'1919.8
2015-Aug-01 00:33N 42°59' E 007°42'7518.7
2015-Jul-31 20:32N 43°02' E 005°60'5 5.5
2015-Jul-31 19:33N 43°07' E 005°56'1 0.6
2015-Jul-31 18:33N 43°07' E 005°55'1716.7
2015-Jul-31 17:32N 42°55' E 006°12'2020.2
2015-Jul-31 16:33N 42°53' E 006°39'1919.2
2015-Jul-31 15:33N 42°50' E 007°05'2120.5
2015-Jul-31 14:33N 42°48' E 007°33'2020.3
2015-Jul-31 13:33N 42°45' E 008°01'2020.1
2015-Jul-31 12:33N 42°43' E 008°28'2120.1
2015-Jul-31 11:32N 42°41' E 008°56'2 2.0
2015-Jul-31 10:26N 42°38' E 008°56'4916.6
2015-Jul-31 07:30N 43°11' E 008°06'2120.3
2015-Jul-31 06:28N 43°24' E 007°44'1819.4
2015-Jul-31 05:33N 43°35' E 007°25'9 7.9
2015-Jul-31 04:28N 43°42' E 007°17'0 0.3
2015-Jul-31 03:33N 43°41' E 007°17'1413.0
2015-Jul-31 02:30N 43°29' E 007°26'1414.4
2015-Jul-31 01:33N 43°17' E 007°33'1515.1
2015-Jul-31 00:33N 43°03' E 007°42'1514.9
2015-Jul-30 23:34N 42°50' E 007°51'1515.1
2015-Jul-30 22:33N 42°36' E 008°00'39 1.7
2015-Jul-29 23:33N 42°28' E 007°08'3915.8
2015-Jul-29 21:07N 42°49' E 006°24'2314.8
2015-Jul-29 19:32N 43°03' E 005°59'4 4.3
2015-Jul-29 18:33N 43°07' E 005°56'0 0.0
2015-Jul-29 17:33N 43°07' E 005°56'0 0.0
2015-Jul-29 16:33N 43°07' E 005°56'0 0.0
2015-Jul-29 15:33N 43°07' E 005°56'1 0.6
2015-Jul-29 14:33N 43°07' E 005°55'1515.4
2015-Jul-29 13:33N 42°55' E 006°10'1919.2
2015-Jul-29 12:33N 42°45' E 006°32'1919.1
2015-Jul-29 11:33N 42°35' E 006°54'1919.1
2015-Jul-29 10:33N 42°25' E 007°16'4 0.4
2015-Jul-29 00:08N 42°22' E 007°21'1016.8
2015-Jul-28 23:33N 42°28' E 007°09'1716.9
2015-Jul-28 22:32N 42°37' E 006°50'4016.6
2015-Jul-28 20:08N 42°57' E 006°03'915.6
2015-Jul-28 19:33N 43°05' E 005°57'2 2.0
2015-Jul-28 18:31N 43°07' E 005°56'0 0.2
2015-Jul-28 17:33N 43°07' E 005°56'1414.2
2015-Jul-28 16:33N 42°56' E 006°08'1918.9
2015-Jul-28 15:33N 42°46' E 006°30'1818.4
2015-Jul-28 14:33N 42°36' E 006°51'1818.2
2015-Jul-28 13:33N 42°26' E 007°12'6118.5
2015-Jul-28 10:14N 41°54' E 008°22'58 5.7
2015-Jul-28 00:11N 42°24' E 007°17'1016.4
2015-Jul-27 23:33N 42°30' E 007°05'5316.5
2015-Jul-27 20:20N 42°56' E 006°02'1114.2
2015-Jul-27 19:34N 43°06' E 005°55'1 1.1
2015-Jul-27 18:31N 43°07' E 005°56'0 0.0
2015-Jul-27 17:34N 43°07' E 005°56'1313.4
2015-Jul-27 16:33N 42°57' E 006°08'1918.6
2015-Jul-27 15:34N 42°47' E 006°29'1918.8
2015-Jul-27 14:33N 42°37' E 006°51'1918.7
2015-Jul-27 13:33N 42°27' E 007°12'1918.7
2015-Jul-27 12:34N 42°17' E 007°33'0 0.0
2015-Jul-27 03:30N 42°17' E 007°33'1819.4
2015-Jul-27 02:33N 42°27' E 007°12'1919.3
2015-Jul-27 01:33N 42°37' E 006°50'1919.2
2015-Jul-27 00:33N 42°47' E 006°28'1918.9
2015-Jul-26 23:33N 42°57' E 006°06'1212.2
2015-Jul-26 22:32N 43°07' E 005°56'0 0.0
2015-Jul-26 21:34N 43°07' E 005°56'1312.8
2015-Jul-26 20:33N 42°57' E 006°07'1919.6
2015-Jul-26 19:34N 42°53' E 006°33'1919.1
2015-Jul-26 18:34N 42°51' E 006°59'4 0.4
2015-Jul-26 08:13N 42°51' E 007°04'5018.7
2015-Jul-26 05:33N 43°04' E 005°59'4 3.7
2015-Jul-26 04:31N 43°07' E 005°56'2311.5
2015-Jul-26 02:33N 42°56' E 006°23'1919.5
2015-Jul-26 01:34N 42°57' E 006°49'1919.0
2015-Jul-26 00:34N 42°58' E 007°15'56 2.5
2015-Jul-25 02:08N 43°01' E 008°31'3220.3
2015-Jul-25 00:33N 42°60' E 007°48'2020.2
2015-Jul-24 23:33N 42°58' E 007°20'2020.2
2015-Jul-24 22:34N 42°57' E 006°53'2019.8
2015-Jul-24 21:33N 42°56' E 006°26'1918.2
2015-Jul-24 20:32N 43°01' E 006°01'7 6.9
2015-Jul-24 19:31N 43°07' E 005°56'0 0.0
2015-Jul-24 18:31N 43°07' E 005°56'1110.8
2015-Jul-24 17:33N 42°58' E 006°04'2020.2
2015-Jul-24 16:33N 42°54' E 006°31'2120.6
2015-Jul-24 15:34N 42°51' E 006°58'52 6.3
2015-Jul-24 07:16N 43°13' E 008°03'1420.1
2015-Jul-24 06:33N 43°22' E 007°48'2019.9
2015-Jul-24 05:33N 43°34' E 007°27'10 8.9
2015-Jul-24 04:27N 43°42' E 007°17'2 2.4
2015-Jul-24 03:32N 43°39' E 007°18'1313.0
2015-Jul-24 02:32N 43°28' E 007°26'1313.2
2015-Jul-24 01:33N 43°16' E 007°33'1413.6
2015-Jul-24 00:33N 43°04' E 007°42'1414.1
2015-Jul-23 23:33N 42°52' E 007°50'  

Dump ship's entire track history